Airfield :
LOGIN :

Register | Disclaimer

   EN    FR    IT 

 










Legend :    VFR   Marginal VFR   IFR   Intensive IFR   Very Intensive IFR
Visi :
Ceiling :
>= 8 km
>= 3000ft
5 to 8 km
1000 to 3000 ft
1500m to 5 km
500 to 1000 ft
800 to 1500m
200 to 500 ft
< 800m
< 200 ft
Symbols :   Thunderstorms  Fog  Heavy snow  Heavy precipitations  Wind > 20 kt
SIGMETs :     Misc.  Thunderstorms  Icing  Turbulence  Mountain Waves  Volcanic Ashes







- Airport Elevation : 26 ft
- IATA code : GLA
- Download approach charts


EGPF - Glasgow

CURRENT METAR :
  • 251220Z AUTO 33010KT 290V010 9999 NCD 08/M02 Q1018

EXPIRED METARs :
  • 251150Z AUTO 35012KT 9999 NCD 09/M02 Q1018
  • 251120Z AUTO 33014KT 290V010 9999 NCD 08/M03 Q1018
  • 251050Z AUTO 35016G26KT 9999 //////CB 09/M03 Q1018
  • 251020Z AUTO 35015KT 9999 NCD 09/M02 Q1017
  • 250950Z AUTO 32011KT 290V350 9999 NCD 08/M03 Q1018
  • 250920Z AUTO 32010KT 290V350 9999 NCD 07/M03 Q1018

TAF TAF EGPF
Valid from the 25 at 12:00 until the 26 at 12:00 UTC


251108Z 2512/2612 35014KT 9999 SCT035
TEMPO 2512/2518 35016G26KT
PROB30
TEMPO 2513/2516 6000 SHRA
BECMG 2521/2524 29005KT
ATIS : +44 141 887 7449
No reported NOTAMs for that airfield.
1 SIGMET reported for the Scottish FIR (EGPX) :
 
Severe turbulence
EGPX SIGMET 03 VALID 251100/251500 EGRR
EGPX SCOTTISH FIR SEV TURB FCST WI N5620 W00206 - N5901 W00501 - N6100 W00232 - N6100 E00000 - N6000 E00000 - N5930 E00051 - N5620 W00206 SFC/FL060 MOV SE 05KT NC=



MET'MAP, your aeronautical weather chart ! - Copyright ORBIFLY December 2007 - Disclaimer

ORBIFLY MET'MAP TEAM :

Programming & Development : Alexandra Zaïnal
Concept & Development : Baudouin d'Aumeries
Co-Development & Prog : Marc-Olivier Méhu
Technical & hardware support : Manuel Goepfert

Contact : metmap@orbifly.com




SOURCES & CREDITS :

   NOAA